Home > Products > Valid Products > TAF

000
FTUS46 KSGX 032327
TAFSAN
TAF
KSAN 032327Z 0400/0506 VRB04KT P6SM FEW030 SCT220
     FM042000 29008KT P6SM SKC
     FM050100 VRB04KT P6SM SKC=



000
FTUS46 KSGX 032327
TAFONT
TAF
KONT 032327Z 0400/0506 22006KT P6SM FEW070
     FM041200 VRB04KT P6SM SKC WS015/02020KT
     FM041500 05008G18KT P6SM SKC
     FM042000 26009KT P6SM SKC
     FM050300 VRB05KT P6SM SKC=



000
FTUS46 KSGX 032327
TAFSNA
TAF
KSNA 032327Z 0400/0424 24008KT P6SM FEW060
     FM040200 VRB04KT P6SM SCT030=



000
FTUS46 KSGX 032327
TAFCRQ
TAF
KCRQ 032327Z 0400/0424 VRB04KT P6SM SKC
     FM042000 29008KT P6SM SKC=



000
FTUS46 KSGX 032327
TAFTRM
TAF
KTRM 032327Z 0400/0424 VRB05KT P6SM BKN100
     FM041600 32010G20KT P6SM SKC=



000
FTUS46 KSGX 032327
TAFPSP
TAF
KPSP 032327Z 0400/0424 33007KT P6SM BKN100
     FM041400 36010G20KT P6SM SKC=



000
FTUS46 KSGX 032106 AAA
TAFSAN
TAF AMD
KSAN 032106Z 0321/0424 29008KT P6SM FEW030 SCT220
     FM040100 VRB04KT P6SM SCT020
     FM042000 29008KT P6SM SKC=



000
FTUS46 KSGX 031728
TAFSAN
TAF
KSAN 031728Z 0318/0424 VRB05KT P6SM FEW030 SCT110 SCT220
     FM032000 29008KT P6SM FEW025 SCT040
     FM040100 VRB04KT P6SM SCT020
     FM042000 29008KT P6SM SKC=



000
FTUS46 KSGX 031728
TAFSNA
TAF
KSNA 031728Z 0318/0418 VRB06KT P6SM FEW025 SCT040 SCT300
     FM032200 22008KT P6SM FEW025 SCT040
     FM040200 VRB04KT P6SM SCT025=



000
FTUS46 KSGX 031728
TAFCRQ
TAF
KCRQ 031728Z 0318/0418 VRB06KT P6SM FEW060 FEW200
     FM032100 27008KT P6SM FEW025 SCT040
     FM040100 VRB04KT P6SM SCT025=



000
FTUS46 KSGX 031728
TAFTRM
TAF
KTRM 031728Z 0318/0418 14006KT P6SM SCT080
     FM040100 33007KT P6SM SKC
     FM041000 32010G20KT P6SM SKC=



000
FTUS46 KSGX 031728
TAFPSP
TAF
KPSP 031728Z 0318/0418 12005KT P6SM SCT080
     FM040200 33006KT P6SM SKC
     FM040800 36007KT P6SM SKC
     FM041700 36010G20KT P6SM SKC=



000
FTUS46 KSGX 031728
TAFONT
TAF
KONT 031728Z 0318/0424 VRB05KT P6SM FEW040 SCT200
     FM032200 26009KT P6SM SCT035 SCT080
     FM040400 VRB04KT P6SM SCT025
     FM041200 VRB04KT P6SM SKC WS015/02020KT
     FM041500 05008G18KT P6SM SKC
     FM042000 26009KT P6SM SKC=



000
FTUS46 KSGX 031728
TAFSNA
TAF
KSNA 031728Z 0318/0418 VRB06KT P6SM FEW025 SCT040 SCT300
     FM032200 22008KT P6SM FEW025 SCT040
     FM040200 VRB04KT P6SM SCT025=



000
FTUS46 KSGX 031728
TAFSAN
TAF
KSAN 031728Z 0318/0424 VRB05KT P6SM FEW030 SCT110 SCT220
     FM032000 29008KT P6SM FEW025 SCT040
     FM040100 VRB04KT P6SM SCT020
     FM042000 29008KT P6SM SKC=



000
FTUS46 KSGX 031728
TAFCRQ
TAF
KCRQ 031728Z 0318/0418 VRB06KT P6SM FEW060 FEW200
     FM032100 27008KT P6SM FEW025 SCT040
     FM040100 VRB04KT P6SM SCT025=



000
FTUS46 KSGX 031728
TAFPSP
TAF
KPSP 031728Z 0318/0418 12005KT P6SM SCT080
     FM040200 33006KT P6SM SKC
     FM040800 36007KT P6SM SKC
     FM041700 36010G20KT P6SM SKC=



000
FTUS46 KSGX 031728
TAFONT
TAF
KONT 031728Z 0318/0424 VRB05KT P6SM FEW040 SCT200
     FM032200 26009KT P6SM SCT035 SCT080
     FM040400 VRB04KT P6SM SCT025
     FM041200 VRB04KT P6SM SKC WS015/02020KT
     FM041500 05008G18KT P6SM SKC
     FM042000 26009KT P6SM SKC=



000
FTUS46 KSGX 031728
TAFTRM
TAF
KTRM 031728Z 0318/0418 14006KT P6SM SCT080
     FM040100 33007KT P6SM SKC
     FM041000 32010G20KT P6SM SKC=



000
FTUS46 KSGX 031505 AAA
TAFSAN
TAF AMD
KSAN 031505Z 0315/0418 VRB05KT P6SM VCSH FEW030 SCT130 BKN200
     FM032000 21007KT P6SM SCT030 BKN050
     FM032200 29010KT P6SM SCT030 SCT040
     FM040300 VRB04KT P6SM SCT030
      TEMPO 0410/0414 BKN025=



000
FTUS46 KSGX 031134
TAFCRQ
TAF
KCRQ 031134Z 0312/0412 07006KT P6SM SCT040 SCT090
     FM032000 26008KT P6SM SCT030 SCT040
     FM040200 VRB04KT P6SM SCT025
      TEMPO 0408/0412 BKN020=



000
FTUS46 KSGX 031134
TAFTRM
TAF
KTRM 031134Z 0312/0412 VRB06KT P6SM SCT080 SCT200
     FM032100 14006KT P6SM SCT080
     FM040200 33006KT P6SM SKC=



000
FTUS46 KSGX 031134
TAFSAN
TAF
KSAN 031134Z 0312/0418 06006KT P6SM -SHRA SCT040 BKN100
      TEMPO 0313/0317 -TSRA BKN030CB
     FM031900 21007KT P6SM SCT030 BKN050
     FM032200 29010KT P6SM SCT030 SCT040
     FM040300 VRB04KT P6SM SCT030
      TEMPO 0410/0414 BKN025=



000
FTUS46 KSGX 031134
TAFPSP
TAF
KPSP 031134Z 0312/0412 VRB06KT P6SM SCT080 SCT200
     FM032100 33009KT P6SM SCT080
     FM040500 VRB04KT P6SM SKC=



000
FTUS46 KSGX 031134
TAFCRQ
TAF
KCRQ 031134Z 0312/0412 07006KT P6SM SCT040 SCT090
     FM032000 26008KT P6SM SCT030 SCT040
     FM040200 VRB04KT P6SM SCT025
      TEMPO 0408/0412 BKN020=



000
FTUS46 KSGX 031134
TAFONT
TAF
KONT 031134Z 0312/0418 VRB04KT P6SM SCT040 SCT200
     FM032100 25011KT P6SM SCT035 SCT080
     FM040400 VRB04KT P6SM SCT025=



000
FTUS46 KSGX 031134
TAFPSP
TAF
KPSP 031134Z 0312/0412 VRB06KT P6SM SCT080 SCT200
     FM032100 33009KT P6SM SCT080
     FM040500 VRB04KT P6SM SKC=



000
FTUS46 KSGX 031134
TAFTRM
TAF
KTRM 031134Z 0312/0412 VRB06KT P6SM SCT080 SCT200
     FM032100 14006KT P6SM SCT080
     FM040200 33006KT P6SM SKC=



000
FTUS46 KSGX 031134
TAFSNA
TAF
KSNA 031134Z 0312/0412 VRB04KT P6SM SCT040 SCT060
     FM032000 22008KT P6SM SCT035
     FM040200 VRB04KT P6SM SCT030=



000
FTUS46 KSGX 031134
TAFSAN
TAF
KSAN 031134Z 0312/0418 06006KT P6SM -SHRA SCT040 BKN100
      TEMPO 0313/0317 -TSRA BKN030CB
     FM031900 21007KT P6SM SCT030 BKN050
     FM032200 29010KT P6SM SCT030 SCT040
     FM040300 VRB04KT P6SM SCT030
      TEMPO 0410/0414 BKN025=



000
FTUS46 KSGX 031134
TAFONT
TAF
KONT 031134Z 0312/0418 VRB04KT P6SM SCT040 SCT200
     FM032100 25011KT P6SM SCT035 SCT080
     FM040400 VRB04KT P6SM SCT025=



000
FTUS46 KSGX 031134
TAFSNA
TAF
KSNA 031134Z 0312/0412 VRB04KT P6SM SCT040 SCT060
     FM032000 22008KT P6SM SCT035
     FM040200 VRB04KT P6SM SCT030=



000
FTUS46 KSGX 030911 AAA
TAFSAN
TAF AMD
KSAN 030911Z 0309/0412 06005KT P6SM VCSH SCT040 BKN060
     FM031200 VRB06KT P6SM -SHRA VCTS FEW025 BKN035CB
     FM032000 29011KT P6SM VCSH FEW035 SCT045
     FM040300 VRB04KT P6SM FEW050 SCT250=



000
FTUS46 KSGX 030911 AAA
TAFSAN
TAF AMD
KSAN 030911Z 0309/0412 06005KT P6SM VCSH SCT040 BKN060
     FM031200 VRB06KT P6SM -SHRA VCTS FEW025 BKN035CB
     FM032000 29011KT P6SM VCSH FEW035 SCT045
     FM040300 VRB04KT P6SM FEW050 SCT250=



000
FTUS46 KSGX 030520
TAFSNA
TAF
KSNA 030520Z 0306/0406 VRB05KT P6SM VCSH FEW025 SCT045
     FM031500 VRB05KT P6SM SCT050
     FM032000 22008KT P6SM SCT050
     FM040200 VRB04KT P6SM SCT250=



000
FTUS46 KSGX 030520
TAFTRM
TAF
KTRM 030520Z 0306/0406 VRB05KT P6SM SCT080
     FM040300 33010KT P6SM SCT250=



000
FTUS46 KSGX 030520
TAFPSP
TAF
KPSP 030520Z 0306/0406 VRB05KT P6SM SCT090
     FM032300 33010KT P6SM SCT250
     FM040300 VRB04KT P6SM SCT250=



000
FTUS46 KSGX 030520
TAFCRQ
TAF
KCRQ 030520Z 0306/0406 VRB03KT P6SM VCSH BKN060
     FM031200 VRB05KT P6SM -SHRA VCTS FEW025 BKN035CB
     FM032000 25008KT P6SM VCSH FEW035 SCT045
     FM040300 VRB03KT P6SM FEW050 SCT250=



000
FTUS46 KSGX 030520
TAFSAN
TAF
KSAN 030520Z 0306/0412 VRB05KT P6SM -SHRA SCT040 BKN060 BKN200
     FM031200 12006KT P6SM -SHRA VCTS FEW025 BKN035CB
     FM032000 29011KT P6SM VCSH FEW035 SCT045
     FM040300 VRB04KT P6SM FEW050 SCT250=



000
FTUS46 KSGX 030520
TAFONT
TAF
KONT 030520Z 0306/0412 VRB04KT P6SM VCSH SCT030 BKN060
     FM032100 24007KT P6SM SCT050
     FM040300 VRB04KT P6SM SCT250=



000
FTUS46 KSGX 030243 AAA
TAFSAN
TAF AMD
KSAN 030243Z 0303/0406 VRB03KT P6SM VCSH FEW035 SCT050 BKN200
     FM031200 12006KT P6SM -SHRA VCTS SCT025 BKN035CB
     FM031900 28011KT P6SM VCSH FEW025 SCT040
     FM040300 VRB04KT P6SM FEW040 SCT250=



000
FTUS46 KSGX 030243 AAA
TAFSAN
TAF AMD
KSAN 030243Z 0303/0406 VRB03KT P6SM VCSH FEW035 SCT050 BKN200
     FM031200 12006KT P6SM -SHRA VCTS SCT025 BKN035CB
     FM031900 28011KT P6SM VCSH FEW025 SCT040
     FM040300 VRB04KT P6SM FEW040 SCT250=



000
FTUS46 KSGX 022320
TAFONT
TAF
KONT 022320Z 0300/0406 24008KT P6SM VCSH SCT045 SCT070
     FM030300 VRB04KT P6SM VCSH SCT030 BKN070
     FM032100 24007KT P6SM SCT050
     FM040300 VRB04KT P6SM FEW050=



000
FTUS46 KSGX 022320
TAFSAN
TAF
KSAN 022320Z 0300/0406 26008KT P6SM -SHRA SCT030 BKN060
     FM030300 VRB03KT P6SM VCSH FEW025 BKN060
     FM031200 12006KT P6SM -SHRA VCTS SCT025 BKN035CB
     FM031900 28011KT P6SM VCSH FEW025 SCT040
     FM040300 VRB04KT P6SM SCT040=



000
FTUS46 KSGX 022320
TAFTRM
TAF
KTRM 022320Z 0300/0324 12010KT P6SM BKN070
     FM030200 VRB06KT P6SM SCT080=



000
FTUS46 KSGX 022320
TAFCRQ
TAF
KCRQ 022320Z 0300/0324 VRB06KT P6SM -SHRA SCT025 BKN070
     FM030200 VRB03KT P6SM VCSH FEW025 BKN070
     FM031200 VRB05KT P6SM -SHRA VCTS FEW025 BKN035CB
     FM032000 25008KT P6SM VCSH FEW025 SCT040=



000
FTUS46 KSGX 022320
TAFPSP
TAF
KPSP 022320Z 0300/0324 33009KT P6SM VCSH FEW060 SCT090
     FM030300 VRB05KT P6SM SCT090
     FM032300 33010KT P6SM SCT250=



000
FTUS46 KSGX 022320
TAFSNA
TAF
KSNA 022320Z 0300/0324 19010KT P6SM VCSH FEW025 SCT045
     FM030200 VRB05KT P6SM VCSH FEW025 SCT045
     FM031500 VRB05KT P6SM FEW025 SCT050
     FM032000 21008KT P6SM SCT050=



000
FTUS46 KSGX 022320
TAFONT
TAF
KONT 022320Z 0300/0406 24008KT P6SM VCSH SCT045 SCT070
     FM030300 VRB04KT P6SM VCSH SCT030 BKN070
     FM032100 24007KT P6SM SCT050
     FM040300 VRB04KT P6SM FEW050=



000
FTUS46 KSGX 022320
TAFPSP
TAF
KPSP 022320Z 0300/0324 33009KT P6SM VCSH FEW060 SCT090
     FM030300 VRB05KT P6SM SCT090
     FM032300 33010KT P6SM SCT250=



000
FTUS46 KSGX 022320
TAFSNA
TAF
KSNA 022320Z 0300/0324 19010KT P6SM VCSH FEW025 SCT045
     FM030200 VRB05KT P6SM VCSH FEW025 SCT045
     FM031500 VRB05KT P6SM FEW025 SCT050
     FM032000 21008KT P6SM SCT050=



000
FTUS46 KSGX 022320
TAFTRM
TAF
KTRM 022320Z 0300/0324 12010KT P6SM BKN070
     FM030200 VRB06KT P6SM SCT080=



000
FTUS46 KSGX 022320
TAFCRQ
TAF
KCRQ 022320Z 0300/0324 VRB06KT P6SM -SHRA SCT025 BKN070
     FM030200 VRB03KT P6SM VCSH FEW025 BKN070
     FM031200 VRB05KT P6SM -SHRA VCTS FEW025 BKN035CB
     FM032000 25008KT P6SM VCSH FEW025 SCT040=



000
FTUS46 KSGX 022320
TAFSAN
TAF
KSAN 022320Z 0300/0406 26008KT P6SM -SHRA SCT030 BKN060
     FM030300 VRB03KT P6SM VCSH FEW025 BKN060
     FM031200 12006KT P6SM -SHRA VCTS SCT025 BKN035CB
     FM031900 28011KT P6SM VCSH FEW025 SCT040
     FM040300 VRB04KT P6SM SCT040=



000
FTUS46 KSGX 022230 AAA
TAFPSP
TAF AMD
KPSP 022230Z 0223/0318 33012G20KT P6SM SHRA FEW025 BKN050
     FM030200 33007KT P6SM SCT050=



000
FTUS46 KSGX 022109 AAA
TAFSAN
TAF AMD
KSAN 022109Z 0221/0324 22012KT P6SM -SHRA VCTS SCT030 BKN050CB
     FM030300 VRB05KT P6SM -SHRA VCTS FEW025 BKN060CB
     FM031100 VRB05KT P6SM -SHRA VCTS SCT025 BKN035CB
     FM031600 VRB05KT P6SM VCSH SCT025 BKN040
     FM032000 29012KT P6SM FEW025 SCT040=



000
FTUS46 KSGX 022109 AAA
TAFSAN
TAF AMD
KSAN 022109Z 0221/0324 22012KT P6SM -SHRA VCTS SCT030 BKN050CB
     FM030300 VRB05KT P6SM -SHRA VCTS FEW025 BKN060CB
     FM031100 VRB05KT P6SM -SHRA VCTS SCT025 BKN035CB
     FM031600 VRB05KT P6SM VCSH SCT025 BKN040
     FM032000 29012KT P6SM FEW025 SCT040=



000
FTUS46 KSGX 021736
TAFSNA
TAF
KSNA 021736Z 0218/0318 16010KT P6SM -SHRA VCTS SCT025 BKN040CB
     FM022000 21010KT P6SM -SHRA VCTS SCT030 BKN040CB
     FM030200 VRB05KT P6SM VCSH SCT025 BKN050
     FM031500 VRB05KT P6SM FEW025 SCT050=



000
FTUS46 KSGX 021736
TAFCRQ
TAF
KCRQ 021736Z 0218/0318 18007KT P6SM -SHRA VCTS SCT025 BKN040CB
     FM022000 22010KT P6SM -SHRA VCTS SCT030 BKN040CB
     FM030200 VRB05KT P6SM -SHRA VCTS SCT025 BKN060CB
     FM031200 VRB04KT P6SM VCSH FEW025 SCT050=



000
FTUS46 KSGX 021736
TAFONT
TAF
KONT 021736Z 0218/0324 VRB05KT P6SM -SHRA VCTS SCT025 BKN050CB
     FM022100 21010KT P6SM VCSH SCT030 BKN040
     FM022300 23010KT P6SM VCSH SCT030 BKN040
     FM030300 VRB04KT P6SM SCT030 BKN050
     FM032100 24007KT P6SM FEW025 SCT050=



000
FTUS46 KSGX 021736
TAFSAN
TAF
KSAN 021736Z 0218/0324 18010KT P6SM -SHRA VCTS SCT025 BKN040CB
     FM022000 22012KT P6SM -SHRA VCTS SCT030 BKN040CB
     FM030300 VRB05KT P6SM -SHRA VCTS FEW025 BKN060CB
     FM031100 VRB05KT P6SM -SHRA VCTS SCT025 BKN035CB
     FM031600 VRB05KT P6SM VCSH SCT025 BKN040
     FM032000 29012KT P6SM FEW025 SCT040=



000
FTUS46 KSGX 021736
TAFTRM
TAF
KTRM 021736Z 0218/0318 15008KT P6SM SCT050 BKN080
     FM022100 VRB06KT P6SM SCT060 SCT090=



000
FTUS46 KSGX 021736
TAFPSP
TAF
KPSP 021736Z 0218/0318 10008KT P6SM VCSH FEW025 BKN050
     FM030300 35007KT P6SM SCT050=



000
FTUS46 KSGX 021736
TAFSNA
TAF
KSNA 021736Z 0218/0318 16010KT P6SM -SHRA VCTS SCT025 BKN040CB
     FM022000 21010KT P6SM -SHRA VCTS SCT030 BKN040CB
     FM030200 VRB05KT P6SM VCSH SCT025 BKN050
     FM031500 VRB05KT P6SM FEW025 SCT050=



000
FTUS46 KSGX 021736
TAFCRQ
TAF
KCRQ 021736Z 0218/0318 18007KT P6SM -SHRA VCTS SCT025 BKN040CB
     FM022000 22010KT P6SM -SHRA VCTS SCT030 BKN040CB
     FM030200 VRB05KT P6SM -SHRA VCTS SCT025 BKN060CB
     FM031200 VRB04KT P6SM VCSH FEW025 SCT050=



000
FTUS46 KSGX 021736
TAFSAN
TAF
KSAN 021736Z 0218/0324 18010KT P6SM -SHRA VCTS SCT025 BKN040CB
     FM022000 22012KT P6SM -SHRA VCTS SCT030 BKN040CB
     FM030300 VRB05KT P6SM -SHRA VCTS FEW025 BKN060CB
     FM031100 VRB05KT P6SM -SHRA VCTS SCT025 BKN035CB
     FM031600 VRB05KT P6SM VCSH SCT025 BKN040
     FM032000 29012KT P6SM FEW025 SCT040=



000
FTUS46 KSGX 021736
TAFONT
TAF
KONT 021736Z 0218/0324 VRB05KT P6SM -SHRA VCTS SCT025 BKN050CB
     FM022100 21010KT P6SM VCSH SCT030 BKN040
     FM022300 23010KT P6SM VCSH SCT030 BKN040
     FM030300 VRB04KT P6SM SCT030 BKN050
     FM032100 24007KT P6SM FEW025 SCT050=



000
FTUS46 KSGX 021736
TAFTRM
TAF
KTRM 021736Z 0218/0318 15008KT P6SM SCT050 BKN080
     FM022100 VRB06KT P6SM SCT060 SCT090=



000
FTUS46 KSGX 021736
TAFPSP
TAF
KPSP 021736Z 0218/0318 10008KT P6SM VCSH FEW025 BKN050
     FM030300 35007KT P6SM SCT050=



000
FTUS46 KSGX 021552 AAA
TAFCRQ
TAF AMD
KCRQ 021552Z 0216/0312 11005KT P6SM -SHRA VCTS SCT025 BKN035CB
      TEMPO 0216/0218 2SM TSRA
     FM021800 18007KT P6SM -SHRA VCTS SCT025 BKN040CB
      TEMPO 0218/0220 4SM RA BKN020
     FM022000 22011KT P6SM VCSH SCT030 BKN040
     FM030200 VRB05KT P6SM VCSH FEW025 BKN060=



000
FTUS46 KSGX 021517 AAA
TAFSAN
TAF AMD
KSAN 021517Z 0215/0318 11006KT P6SM -SHRA BKN030 BKN060
     FM021700 18012KT P6SM -SHRA VCTS SCT025 BKN040CB
     FM022000 20012KT P6SM -SHRA VCTS SCT030 BKN040CB
     FM030300 VRB05KT P6SM VCSH FEW025 BKN060
     FM031100 VRB06KT P6SM -SHRA VCTS SCT025 BKN035CB
     FM031600 VRB04KT P6SM VCSH SCT025 BKN040=



000
FTUS46 KSGX 021451 AAB
TAFTRM
TAF AMD
KTRM 021451Z 0215/0312 VRB05KT 5SM BR VCSH BKN025 BKN080
      TEMPO 0215/0218 1/2SM FG
     FM021800 16011KT P6SM SCT050 BKN080
     FM022100 21012KT P6SM SCT050 BKN090
     FM030000 31012KT P6SM SCT060 SCT090
     FM030400 33005KT P6SM SCT090=



000
FTUS46 KSGX 021451 AAB
TAFTRM
TAF AMD
KTRM 021451Z 0215/0312 VRB05KT 5SM BR VCSH BKN025 BKN080
      TEMPO 0215/0218 1/2SM FG
     FM021800 16011KT P6SM SCT050 BKN080
     FM022100 21012KT P6SM SCT050 BKN090
     FM030000 31012KT P6SM SCT060 SCT090
     FM030400 33005KT P6SM SCT090=



000
FTUS46 KSGX 021321 AAA
TAFTRM
TAF AMD
KTRM 021321Z 0213/0312 VRB05KT 5SM BR VCSH BKN025 BKN080
     FM021600 VRB05KT P6SM VCSH SCT025 BKN080
     FM021800 16011KT P6SM SCT050 BKN080
     FM022100 21012KT P6SM SCT050 BKN090
     FM030000 31012KT P6SM SCT060 SCT090
     FM030400 33005KT P6SM SCT090=



000
FTUS46 KSGX 021321 AAA
TAFTRM
TAF AMD
KTRM 021321Z 0213/0312 VRB05KT 5SM BR VCSH BKN025 BKN080
     FM021600 VRB05KT P6SM VCSH SCT025 BKN080
     FM021800 16011KT P6SM SCT050 BKN080
     FM022100 21012KT P6SM SCT050 BKN090
     FM030000 31012KT P6SM SCT060 SCT090
     FM030400 33005KT P6SM SCT090=



000
FTUS46 KSGX 021141
TAFSNA
TAF
KSNA 021141Z 0212/0312 VRB04KT P6SM VCSH SCT025 BKN035
     FM021700 16010KT P6SM -SHRA VCTS SCT025 BKN040CB
     FM022000 21011KT P6SM VCSH SCT030 BKN040
     FM030300 VRB05KT P6SM SCT025 BKN050=



000
FTUS46 KSGX 021141
TAFSAN
TAF
KSAN 021141Z 0212/0318 11005KT P6SM -SHRA SCT025 BKN040
     FM021700 16010KT P6SM -SHRA VCTS SCT025 BKN040CB
     FM022000 22012KT P6SM VCSH SCT030 BKN040
     FM030300 VRB05KT P6SM VCSH FEW025 BKN060
     FM031100 VRB06KT P6SM -SHRA VCTS SCT025 BKN035CB
     FM031600 VRB04KT P6SM VCSH SCT025 BKN040=



000
FTUS46 KSGX 021141
TAFONT
TAF
KONT 021141Z 0212/0318 12008KT 4SM RA BKN020 OVC040
     FM021330 VRB05KT P6SM VCSH SCT025 OVC050
     FM021800 24007KT P6SM -SHRA VCTS SCT025CB BKN050
     FM022100 25010KT P6SM VCSH SCT030 BKN040
     FM030300 VRB04KT P6SM VCSH SCT030 BKN050
     FM030900 VRB04KT P6SM SCT030 SCT050=



000
FTUS46 KSGX 021141
TAFTRM
TAF
KTRM 021141Z 0212/0312 VRB05KT P6SM VCSH SCT040 BKN070
     FM021800 16011KT P6SM SCT050 BKN080
     FM022100 21012KT P6SM SCT050 BKN090
     FM030000 31012KT P6SM SCT060 SCT090
     FM030400 33005KT P6SM SCT090=



000
FTUS46 KSGX 021141
TAFPSP
TAF
KPSP 021141Z 0212/0312 VRB05KT P6SM VCSH SCT025 OVC035
     FM022000 32010KT P6SM SCT040 BKN050
     FM030000 35007KT P6SM SCT050=



000
FTUS46 KSGX 021141
TAFCRQ
TAF
KCRQ 021141Z 0212/0312 11005KT P6SM -SHRA SCT025 BKN035
     FM021700 14007KT P6SM -SHRA VCTS SCT025 BKN040CB
      TEMPO 0217/0220 4SM RA BKN020
     FM022000 22011KT P6SM VCSH SCT030 BKN040
     FM030200 VRB05KT P6SM VCSH FEW025 BKN060=



000
FTUS46 KSGX 020928 AAA
TAFSNA
TAF AMD
KSNA 020928Z 0209/0306 VRB04KT P6SM VCSH SCT025 BKN035
     FM021000 VRB06KT 5SM RA VCTS SCT015 OVC025CB
     FM021130 VRB06KT P6SM -SHRA SCT025 BKN035
     FM021800 20011KT P6SM -SHRA VCTS SCT025CB BKN050
     FM030100 16006KT P6SM VCSH BKN050=



000
FTUS46 KSGX 020928 AAA
TAFSNA
TAF AMD
KSNA 020928Z 0209/0306 VRB04KT P6SM VCSH SCT025 BKN035
     FM021000 VRB06KT 5SM RA VCTS SCT015 OVC025CB
     FM021130 VRB06KT P6SM -SHRA SCT025 BKN035
     FM021800 20011KT P6SM -SHRA VCTS SCT025CB BKN050
     FM030100 16006KT P6SM VCSH BKN050=



000
FTUS46 KSGX 020844 AAA
TAFSAN
TAF AMD
KSAN 020844Z 0209/0312 14007KT P6SM -SHRA SCT015 BKN025
     FM021100 16007KT 6SM RA VCTS BKN020CB
     FM021230 17006KT P6SM -SHRA SCT020 BKN035
     FM021600 18008KT P6SM -SHRA VCTS FEW015 SCT025CB BKN050
     FM022000 22012KT P6SM -SHRA VCTS SCT025CB BKN050
     FM030300 VRB05KT P6SM VCSH FEW025 BKN060
     FM030900 18009KT P6SM VCSH BKN060=



000
FTUS46 KSGX 020844 AAA
TAFSAN
TAF AMD
KSAN 020844Z 0209/0312 14007KT P6SM -SHRA SCT015 BKN025
     FM021100 16007KT 6SM RA VCTS BKN020CB
     FM021230 17006KT P6SM -SHRA SCT020 BKN035
     FM021600 18008KT P6SM -SHRA VCTS FEW015 SCT025CB BKN050
     FM022000 22012KT P6SM -SHRA VCTS SCT025CB BKN050
     FM030300 VRB05KT P6SM VCSH FEW025 BKN060
     FM030900 18009KT P6SM VCSH BKN060=



000
FTUS46 KSGX 020834 AAA
TAFCRQ
TAF AMD
KCRQ 020834Z 0209/0306 VRB05KT 6SM -RA BR BKN025 OVC035
     FM021100 VRB05KT P6SM -SHRA SCT025 BKN040
     FM021600 VRB05KT P6SM -SHRA VCTS FEW015 SCT025CB BKN050
     FM021900 21011KT P6SM -SHRA VCTS SCT025CB BKN050
     FM030300 VRB03KT P6SM VCSH BKN050=



000
FTUS46 KSGX 020834 AAA
TAFCRQ
TAF AMD
KCRQ 020834Z 0209/0306 VRB05KT 6SM -RA BR BKN025 OVC035
     FM021100 VRB05KT P6SM -SHRA SCT025 BKN040
     FM021600 VRB05KT P6SM -SHRA VCTS FEW015 SCT025CB BKN050
     FM021900 21011KT P6SM -SHRA VCTS SCT025CB BKN050
     FM030300 VRB03KT P6SM VCSH BKN050=



000
FTUS46 KSGX 020543
TAFONT
TAF
KONT 020543Z 0206/0312 VRB05KT P6SM VCSH BKN050
     FM021900 24011KT P6SM -SHRA VCTS SCT025CB BKN050
     FM030200 24008KT P6SM VCSH BKN050=



000
FTUS46 KSGX 020543
TAFTRM
TAF
KTRM 020543Z 0206/0306 VRB06KT P6SM -SHRA SCT070 OVC100
     FM020800 VRB05KT P6SM VCSH FEW025 BKN050
      TEMPO 0214/0217 5SM BR BKN025
     FM021900 17010KT P6SM BKN070
     FM022300 27012G20KT P6SM BKN100
     FM030300 32010KT P6SM SCT100=



000
FTUS46 KSGX 020543
TAFPSP
TAF
KPSP 020543Z 0206/0306 VRB05KT P6SM -SHRA FEW045 OVC060
     FM020700 VRB05KT P6SM VCSH SCT025 BKN050
      TEMPO 0214/0217 5SM BR BKN025
     FM022100 34010KT P6SM BKN070
     FM030200 VRB05KT P6SM SCT100=



000
FTUS46 KSGX 020543
TAFSNA
TAF
KSNA 020543Z 0206/0306 VRB05KT P6SM VCSH FEW035 BKN070
     FM021800 20011KT P6SM -SHRA VCTS SCT025CB BKN050
     FM030100 16006KT P6SM VCSH BKN050=



000
FTUS46 KSGX 020543
TAFSAN
TAF
KSAN 020543Z 0206/0312 16005KT P6SM VCSH BKN040 BKN070
     FM021600 18008KT P6SM -SHRA VCTS FEW015 SCT025CB BKN050
     FM022000 22012KT P6SM -SHRA VCTS SCT025CB BKN050
     FM030300 VRB05KT P6SM VCSH FEW025 BKN060
     FM030900 18009KT P6SM VCSH BKN060=



000
FTUS46 KSGX 020543
TAFCRQ
TAF
KCRQ 020543Z 0206/0306 VRB03KT P6SM VCSH OVC050
     FM021600 VRB05KT P6SM -SHRA VCTS FEW015 SCT025CB BKN050
     FM021900 21011KT P6SM -SHRA VCTS SCT025CB BKN050
     FM030300 VRB03KT P6SM VCSH BKN050=



000
FTUS46 KSGX 020543
TAFSNA
TAF
KSNA 020543Z 0206/0306 VRB05KT P6SM VCSH FEW035 BKN070
     FM021800 20011KT P6SM -SHRA VCTS SCT025CB BKN050
     FM030100 16006KT P6SM VCSH BKN050=



000
FTUS46 KSGX 020543
TAFONT
TAF
KONT 020543Z 0206/0312 VRB05KT P6SM VCSH BKN050
     FM021900 24011KT P6SM -SHRA VCTS SCT025CB BKN050
     FM030200 24008KT P6SM VCSH BKN050=



000
FTUS46 KSGX 020543
TAFPSP
TAF
KPSP 020543Z 0206/0306 VRB05KT P6SM -SHRA FEW045 OVC060
     FM020700 VRB05KT P6SM VCSH SCT025 BKN050
      TEMPO 0214/0217 5SM BR BKN025
     FM022100 34010KT P6SM BKN070
     FM030200 VRB05KT P6SM SCT100=



000
FTUS46 KSGX 020543
TAFSAN
TAF
KSAN 020543Z 0206/0312 16005KT P6SM VCSH BKN040 BKN070
     FM021600 18008KT P6SM -SHRA VCTS FEW015 SCT025CB BKN050
     FM022000 22012KT P6SM -SHRA VCTS SCT025CB BKN050
     FM030300 VRB05KT P6SM VCSH FEW025 BKN060
     FM030900 18009KT P6SM VCSH BKN060=



000
FTUS46 KSGX 020543
TAFTRM
TAF
KTRM 020543Z 0206/0306 VRB06KT P6SM -SHRA SCT070 OVC100
     FM020800 VRB05KT P6SM VCSH FEW025 BKN050
      TEMPO 0214/0217 5SM BR BKN025
     FM021900 17010KT P6SM BKN070
     FM022300 27012G20KT P6SM BKN100
     FM030300 32010KT P6SM SCT100=



000
FTUS46 KSGX 020543
TAFCRQ
TAF
KCRQ 020543Z 0206/0306 VRB03KT P6SM VCSH OVC050
     FM021600 VRB05KT P6SM -SHRA VCTS FEW015 SCT025CB BKN050
     FM021900 21011KT P6SM -SHRA VCTS SCT025CB BKN050
     FM030300 VRB03KT P6SM VCSH BKN050=



000
FTUS46 KSGX 020430 AAA
TAFSAN
TAF AMD
KSAN 020430Z 0205/0306 VRB04KT P6SM VCSH SCT040 BKN070
     FM021300 17010KT P6SM -SHRA VCTS FEW015 SCT025CB BKN050
     FM022000 23011KT P6SM -SHRA VCTS FEW015 SCT025CB BKN050
     FM030300 18006KT P6SM VCSH FEW025 BKN060=



000
FTUS46 KSGX 020430 AAA
TAFSAN
TAF AMD
KSAN 020430Z 0205/0306 VRB04KT P6SM VCSH SCT040 BKN070
     FM021300 17010KT P6SM -SHRA VCTS FEW015 SCT025CB BKN050
     FM022000 23011KT P6SM -SHRA VCTS FEW015 SCT025CB BKN050
     FM030300 18006KT P6SM VCSH FEW025 BKN060=



000
FTUS46 KSGX 012329
TAFTRM
TAF
KTRM 012329Z 0200/0224 VRB06KT P6SM -SHRA SCT045 OVC080
     FM020800 VRB05KT P6SM VCSH SCT025 BKN045
     FM021900 14007KT P6SM BKN070
     FM022300 29012G20KT P6SM BKN100=



000
FTUS46 KSGX 012329
TAFSNA
TAF
KSNA 012329Z 0200/0224 14008KT P6SM VCSH SCT035 BKN060
     FM020200 VRB06KT P6SM VCSH FEW035 BKN070
     FM021200 VRB04KT P6SM -SHRA VCTS SCT025CB BKN050
     FM021900 20011KT P6SM -SHRA VCTS SCT025CB BKN050=



000
FTUS46 KSGX 012329
TAFPSP
TAF
KPSP 012329Z 0200/0224 VRB05KT P6SM -SHRA FEW045 OVC060
     FM020800 VRB05KT P6SM VCSH SCT025 BKN045
     FM021900 32010KT P6SM BKN070=



000
FTUS46 KSGX 012329
TAFCRQ
TAF
KCRQ 012329Z 0200/0224 10010KT P6SM -RA FEW015 OVC060
     FM020300 VRB05KT P6SM VCSH FEW025 BKN060
     FM021300 13009KT P6SM -SHRA VCTS FEW015 SCT025CB BKN050
     FM021900 21011KT P6SM -SHRA VCTS FEW015 SCT025CB BKN050=



000
FTUS46 KSGX 012329
TAFSAN
TAF
KSAN 012329Z 0200/0306 09010KT P6SM -RA FEW010 OVC060
     FM020300 VRB05KT P6SM VCSH FEW025 BKN050
     FM021300 17010KT P6SM -SHRA VCTS FEW015 SCT025CB BKN050
     FM022000 23011KT P6SM -SHRA VCTS FEW015 SCT025CB BKN050
     FM030300 18006KT P6SM VCSH FEW025 BKN060=



000
FTUS46 KSGX 012329
TAFONT
TAF
KONT 012329Z 0200/0306 11007KT P6SM VCSH SCT050 BKN080
     FM020200 VRB05KT P6SM VCSH FEW030 BKN070
     FM021200 VRB05KT P6SM -SHRA SCT025 BKN050
     FM022000 24011KT P6SM -SHRA VCTS SCT025CB BKN050
     FM030200 24008KT P6SM VCSH FEW025 BKN070=



000
FTUS46 KSGX 012046 AAB
TAFONT
TAF AMD
KONT 012046Z 0121/0224 09007KT P6SM VCSH SCT030 BKN060
     FM020000 VRB05KT P6SM VCSH SCT015 BKN070
     FM022200 25009KT P6SM SCT030 SCT090=



000
FTUS46 KSGX 012046 AAB
TAFONT
TAF AMD
KONT 012046Z 0121/0224 09007KT P6SM VCSH SCT030 BKN060
     FM020000 VRB05KT P6SM VCSH SCT015 BKN070
     FM022200 25009KT P6SM SCT030 SCT090=



000
FTUS46 KSGX 012043 AAA
TAFONT
TAF AMD
KONT 012043Z 0121/0224 09007KT P6SM VCSH BKN060
     FM020000 VRB05KT P6SM VCSH SCT015 BKN070
     FM022200 25009KT P6SM SCT030 SCT090=



000
FTUS46 KSGX 012043 AAA
TAFONT
TAF AMD
KONT 012043Z 0121/0224 09007KT P6SM VCSH BKN060
     FM020000 VRB05KT P6SM VCSH SCT015 BKN070
     FM022200 25009KT P6SM SCT030 SCT090=



000
FTUS46 KSGX 011928 AAB
TAFSAN
TAF AMD
KSAN 011928Z 0119/0224 09010KT P6SM -RA SCT015 OVC060
      TEMPO 0119/0121 09012G19KT
     FM020200 VRB06KT P6SM VCSH FEW025 BKN060
     FM021300 29009KT P6SM VCSH FEW025 BKN060=



000
FTUS46 KSGX 011928 AAB
TAFSAN
TAF AMD
KSAN 011928Z 0119/0224 09010KT P6SM -RA SCT015 OVC060
      TEMPO 0119/0121 09012G19KT
     FM020200 VRB06KT P6SM VCSH FEW025 BKN060
     FM021300 29009KT P6SM VCSH FEW025 BKN060=



000
FTUS46 KSGX 011928 AAA
TAFCRQ
TAF AMD
KCRQ 011928Z 0119/0218 10010KT P6SM -RA SCT015 OVC060
      TEMPO 0119/0121 09014G21KT
     FM020200 VRB06KT P6SM VCSH SCT025 BKN060
     FM021400 29010KT P6SM VCSH FEW025 BKN060=



000
FTUS46 KSGX 011928 AAA
TAFCRQ
TAF AMD
KCRQ 011928Z 0119/0218 10010KT P6SM -RA SCT015 OVC060
      TEMPO 0119/0121 09014G21KT
     FM020200 VRB06KT P6SM VCSH SCT025 BKN060
     FM021400 29010KT P6SM VCSH FEW025 BKN060=



000
FTUS46 KSGX 011923 AAA
TAFSAN
TAF AMD
KSAN 011923Z 0119/0224 09010KT P6SM -RA SCT015 OVC060
      TEMPO 0119/0121 09012G19KT
     FM020200 VRB06KT P6SM VCSH FEW025 BKN060
     FM021800 29009KT P6SM VCSH FEW025 BKN060=



000
FTUS46 KSGX 011746 CCA
TAFONT
TAF COR
KONT 011746Z 0118/0224 VRB05KT P6SM VCSH BKN080
     FM012200 23010KT P6SM VCSH SCT025 BKN080
     FM020300 25005KT P6SM VCSH SCT015 BKN080
     FM022300 25009KT P6SM SCT030 SCT090=



000
FTUS46 KSGX 011746 CCA
TAFONT
TAF COR
KONT 011746Z 0118/0224 VRB05KT P6SM VCSH BKN080
     FM012200 23010KT P6SM VCSH SCT025 BKN080
     FM020300 25005KT P6SM VCSH SCT015 BKN080
     FM022300 25009KT P6SM SCT030 SCT090=



000
FTUS46 KSGX 011741
TAFSNA
TAF
KSNA 011741Z 0118/0218 VRB06KT P6SM VCSH FEW030 OVC070
     FM012000 20010KT P6SM VCSH FEW030 OVC070
     FM020100 VRB05KT P6SM VCSH FEW030 BKN070=



000
FTUS46 KSGX 011741
TAFCRQ
TAF
KCRQ 011741Z 0118/0218 VRB05KT P6SM -RA SCT015 OVC060
      TEMPO 0118/0120 6SM BR
     FM012200 VRB06KT P6SM VCSH SCT025 BKN060=



000
FTUS46 KSGX 011741
TAFSAN
TAF
KSAN 011741Z 0118/0224 VRB06KT P6SM -RA SCT015 OVC060
      TEMPO 0118/0120 5SM RA BR SCT015 OVC025
     FM012300 VRB05KT P6SM VCSH FEW025 BKN060
     FM021500 29009KT P6SM VCSH FEW025 BKN060=



000
FTUS46 KSGX 011741
TAFONT
TAF
KONT 011741Z 0118/0224 VRB05KT P6SM VCSH BKN080
     FM012200 23010KT P6SM VCSH SCT025 BKN080
     FM020300 25005KT P6SM VCSH SCT015 BKN025
     FM022300 25009KT P6SM SCT030 SCT090=



000
FTUS46 KSGX 011741
TAFPSP
TAF
KPSP 011741Z 0118/0218 VRB06KT P6SM -RA OVC060
     FM020100 VRB05KT P6SM VCSH SCT030 BKN070
     FM021000 VRB05KT P6SM FEW030 BKN060=



000
FTUS46 KSGX 011741
TAFTRM
TAF
KTRM 011741Z 0118/0218 VRB06KT P6SM -RA OVC060
     FM020200 VRB05KT P6SM VCSH SCT030 BKN070
     FM021000 VRB05KT P6SM FEW030 BKN070=



000
FTUS46 KSGX 011741
TAFPSP
TAF
KPSP 011741Z 0118/0218 VRB06KT P6SM -RA OVC060
     FM020100 VRB05KT P6SM VCSH SCT030 BKN070
     FM021000 VRB05KT P6SM FEW030 BKN060=



000
FTUS46 KSGX 011741
TAFSNA
TAF
KSNA 011741Z 0118/0218 VRB06KT P6SM VCSH FEW030 OVC070
     FM012000 20010KT P6SM VCSH FEW030 OVC070
     FM020100 VRB05KT P6SM VCSH FEW030 BKN070=



000
FTUS46 KSGX 011741
TAFTRM
TAF
KTRM 011741Z 0118/0218 VRB06KT P6SM -RA OVC060
     FM020200 VRB05KT P6SM VCSH SCT030 BKN070
     FM021000 VRB05KT P6SM FEW030 BKN070=



000
FTUS46 KSGX 011741
TAFCRQ
TAF
KCRQ 011741Z 0118/0218 VRB05KT P6SM -RA SCT015 OVC060
      TEMPO 0118/0120 6SM BR
     FM012200 VRB06KT P6SM VCSH SCT025 BKN060=



000
FTUS46 KSGX 011741
TAFSAN
TAF
KSAN 011741Z 0118/0224 VRB06KT P6SM -RA SCT015 OVC060
      TEMPO 0118/0120 5SM RA BR SCT015 OVC025
     FM012300 VRB05KT P6SM VCSH FEW025 BKN060
     FM021500 29009KT P6SM VCSH FEW025 BKN060=



000
FTUS46 KSGX 011741
TAFONT
TAF
KONT 011741Z 0118/0224 VRB05KT P6SM VCSH BKN080
     FM012200 23010KT P6SM VCSH SCT025 BKN080
     FM020300 25005KT P6SM VCSH SCT015 BKN025
     FM022300 25009KT P6SM SCT030 SCT090=



000
FTUS46 KSGX 011519 AAA
TAFSAN
TAF AMD
KSAN 011519Z 0115/0218 12005KT 5SM -RA BR SCT015 BKN030
     FM012100 25009KT P6SM VCSH SCT025 BKN035=



000
FTUS46 KSGX 011252 AAA
TAFCRQ
TAF AMD
KCRQ 011252Z 0113/0212 12005KT 5SM -RA BR SCT015 BKN030
     FM011900 21007KT P6SM VCSH SCT025 BKN035=



000
FTUS46 KSGX 011252 AAA
TAFCRQ
TAF AMD
KCRQ 011252Z 0113/0212 12005KT 5SM -RA BR SCT015 BKN030
     FM011900 21007KT P6SM VCSH SCT025 BKN035=



000
FTUS46 KSGX 011249 AAA
TAFTRM
TAF AMD
KTRM 011249Z 0113/0212 VRB05KT P6SM BKN090
     FM011600 VRB06KT 5SM -RA BR BKN025
     FM020200 36005KT P6SM VCSH SCT030 BKN060=



000
FTUS46 KSGX 011249 AAA
TAFTRM
TAF AMD
KTRM 011249Z 0113/0212 VRB05KT P6SM BKN090
     FM011600 VRB06KT 5SM -RA BR BKN025
     FM020200 36005KT P6SM VCSH SCT030 BKN060=



000
FTUS46 KSGX 011248 AAA
TAFPSP
TAF AMD
KPSP 011248Z 0113/0212 VRB05KT P6SM BKN090
     FM011700 VRB06KT 5SM -RA BR BKN025
     FM020200 36005KT P6SM VCSH SCT030 BKN060=



000
FTUS46 KSGX 011248 AAA
TAFPSP
TAF AMD
KPSP 011248Z 0113/0212 VRB05KT P6SM BKN090
     FM011700 VRB06KT 5SM -RA BR BKN025
     FM020200 36005KT P6SM VCSH SCT030 BKN060=



000
FTUS46 KSGX 011137
TAFTRM
TAF
KTRM 011137Z 0112/0212 VRB05KT P6SM BKN090
     FM011800 VRB06KT 5SM -RA BR BKN025
     FM020300 36005KT P6SM VCSH SCT030 BKN060=



000
FTUS46 KSGX 011137
TAFSAN
TAF
KSAN 011137Z 0112/0218 12005KT 5SM -RA BR SCT015 BKN030
     FM012100 25009KT P6SM VCSH SCT025 BKN035=



000
FTUS46 KSGX 011137
TAFSNA
TAF
KSNA 011137Z 0112/0212 VRB03KT P6SM VCSH BKN035
     FM011800 16008KT P6SM SCT035 SCT060
     FM020200 21007KT 6SM -SHRA BR SCT020 BKN030=



000
FTUS46 KSGX 011137
TAFONT
TAF
KONT 011137Z 0112/0218 VRB05KT 6SM BR VCSH BKN035
     FM012000 23010KT P6SM SCT025 BKN050
     FM020300 25005KT 5SM -SHRA BR SCT015 BKN025=



000
FTUS46 KSGX 011137
TAFCRQ
TAF
KCRQ 011137Z 0112/0212 VRB05KT P6SM VCSH SCT025 BKN045
     FM011400 12005KT 5SM -RA BR SCT015 BKN030
     FM011900 21007KT P6SM VCSH SCT025 BKN035=



000
FTUS46 KSGX 011137
TAFPSP
TAF
KPSP 011137Z 0112/0212 VRB05KT P6SM BKN090
     FM011800 VRB06KT 5SM -RA BR BKN025
     FM020300 36005KT P6SM VCSH SCT030 BKN060=



000
FTUS46 KSGX 010926 CCA
TAFSAN
TAF COR
KSAN 010926Z 0109/0212 18005KT P6SM VCSH SCT025 OVC060
     FM011600 20008KT 6SM -SHRA BR SCT015 BKN030
     FM020100 VRB04KT P6SM VCSH SCT025 BKN035=



000
FTUS46 KSGX 010923 AAA
TAFSAN
TAF AMD
KSAN 010923Z 0109/0212 VRB05KT 6SM -SHRA BR SCT025 OVC060
     FM012000 22007KT P6SM -SHRA SCT025 BKN035
     FM020300 VRB04KT P6SM VCSH SCT025 BKN035=



000
FTUS46 KSGX 010718 AAA
TAFONT
TAF AMD
KONT 010718Z 0107/0212 VRB05KT 5SM -SHRA BR OVC035
      TEMPO 0107/0110 2SM SHRA BR BKN020
     FM012000 24007KT P6SM -SHRA SCT025 BKN035
     FM020300 VRB05KT P6SM VCSH SCT025 BKN035=



000
FTUS46 KSGX 010718 AAA
TAFONT
TAF AMD
KONT 010718Z 0107/0212 VRB05KT 5SM -SHRA BR OVC035
      TEMPO 0107/0110 2SM SHRA BR BKN020
     FM012000 24007KT P6SM -SHRA SCT025 BKN035
     FM020300 VRB05KT P6SM VCSH SCT025 BKN035=



000
FTUS46 KSGX 010524
TAFSNA
TAF
KSNA 010524Z 0106/0206 VRB03KT P6SM -SHRA SCT035 BKN045
     FM010900 VRB03KT 6SM -SHRA BR BKN025 BKN035
     FM012000 21010KT P6SM -SHRA SCT025 BKN035
     FM020200 VRB05KT P6SM VCSH SCT025 BKN035=



000
FTUS46 KSGX 010524
TAFSNA
TAF
KSNA 010524Z 0106/0206 VRB03KT P6SM -SHRA SCT035 BKN045
     FM010900 VRB03KT 6SM -SHRA BR BKN025 BKN035
     FM012000 21010KT P6SM -SHRA SCT025 BKN035
     FM020200 VRB05KT P6SM VCSH SCT025 BKN035=



000
FTUS46 KSGX 010524
TAFPSP
TAF
KPSP 010524Z 0106/0206 VRB05KT P6SM FEW070 BKN100
     FM011800 VRB06KT P6SM VCSH FEW040 BKN070
      TEMPO 0200/0204 6SM -RA BR BKN025
     FM020400 VRB05KT P6SM VCSH SCT025 BKN060=



000
FTUS46 KSGX 010524
TAFONT
TAF
KONT 010524Z 0106/0212 VRB04KT P6SM VCSH SCT025 BKN035
     FM010800 VRB05KT 6SM -SHRA BR BKN025 OVC035
     FM012000 24007KT P6SM -SHRA SCT025 BKN035
     FM020300 VRB05KT P6SM VCSH SCT025 BKN035=



000
FTUS46 KSGX 010524
TAFSAN
TAF
KSAN 010524Z 0106/0212 VRB05KT P6SM VCSH BKN025 BKN035
     FM011000 VRB05KT 6SM -SHRA BR SCT015 OVC025
     FM012000 22007KT P6SM -SHRA SCT025 BKN035
     FM020300 VRB04KT P6SM VCSH SCT025 BKN035=



000
FTUS46 KSGX 010524
TAFTRM
TAF
KTRM 010524Z 0106/0206 VRB05KT P6SM BKN100
     FM012000 VRB05KT P6SM VCSH SCT050 BKN080
      TEMPO 0200/0204 6SM -RA BR BKN025
     FM020400 VRB05KT P6SM VCSH SCT035 BKN070=



000
FTUS46 KSGX 010524
TAFCRQ
TAF
KCRQ 010524Z 0106/0206 VRB04KT P6SM VCSH SCT025 BKN035
     FM010800 VRB04KT P6SM VCSH BKN025 OVC035
     FM011000 VRB05KT 6SM -SHRA BR SCT015 OVC025
     FM012000 22008KT P6SM -SHRA FEW015 SCT025 BKN035
     FM020300 VRB03KT P6SM VCSH SCT025 BKN035=



000
FTUS46 KSGX 010524
TAFSAN
TAF
KSAN 010524Z 0106/0212 VRB05KT P6SM VCSH BKN025 BKN035
     FM011000 VRB05KT 6SM -SHRA BR SCT015 OVC025
     FM012000 22007KT P6SM -SHRA SCT025 BKN035
     FM020300 VRB04KT P6SM VCSH SCT025 BKN035=



000
FTUS46 KSGX 010524
TAFPSP
TAF
KPSP 010524Z 0106/0206 VRB05KT P6SM FEW070 BKN100
     FM011800 VRB06KT P6SM VCSH FEW040 BKN070
      TEMPO 0200/0204 6SM -RA BR BKN025
     FM020400 VRB05KT P6SM VCSH SCT025 BKN060=



000
FTUS46 KSGX 010524
TAFONT
TAF
KONT 010524Z 0106/0212 VRB04KT P6SM VCSH SCT025 BKN035
     FM010800 VRB05KT 6SM -SHRA BR BKN025 OVC035
     FM012000 24007KT P6SM -SHRA SCT025 BKN035
     FM020300 VRB05KT P6SM VCSH SCT025 BKN035=



000
FTUS46 KSGX 010524
TAFCRQ
TAF
KCRQ 010524Z 0106/0206 VRB04KT P6SM VCSH SCT025 BKN035
     FM010800 VRB04KT P6SM VCSH BKN025 OVC035
     FM011000 VRB05KT 6SM -SHRA BR SCT015 OVC025
     FM012000 22008KT P6SM -SHRA FEW015 SCT025 BKN035
     FM020300 VRB03KT P6SM VCSH SCT025 BKN035=



000
FTUS46 KSGX 010524
TAFTRM
TAF
KTRM 010524Z 0106/0206 VRB05KT P6SM BKN100
     FM012000 VRB05KT P6SM VCSH SCT050 BKN080
      TEMPO 0200/0204 6SM -RA BR BKN025
     FM020400 VRB05KT P6SM VCSH SCT035 BKN070=



000
FTUS46 KSGX 010407 AAA
TAFONT
TAF AMD
KONT 010407Z 0104/0206 26007KT P6SM VCSH FEW025 SCT035 BKN050
     FM010800 VRB05KT P6SM VCSH BKN025 OVC035
     FM011000 VRB05KT 5SM -SHRA BR SCT015 BKN025
     FM012100 24008KT 6SM -SHRA BR SCT025 BKN035=



000
FTUS46 KSGX 010407 AAA
TAFONT
TAF AMD
KONT 010407Z 0104/0206 26007KT P6SM VCSH FEW025 SCT035 BKN050
     FM010800 VRB05KT P6SM VCSH BKN025 OVC035
     FM011000 VRB05KT 5SM -SHRA BR SCT015 BKN025
     FM012100 24008KT 6SM -SHRA BR SCT025 BKN035=



000
FTUS46 KSGX 010351 AAA
TAFCRQ
TAF AMD
KCRQ 010351Z 0104/0124 VRB04KT P6SM VCSH SCT025 BKN035
     FM010700 VRB04KT P6SM VCSH BKN025 OVC035
     FM011000 VRB05KT 5SM -SHRA BR SCT015 OVC025
     FM012000 22008KT 6SM -SHRA BR FEW015 SCT025 BKN035=



000
FTUS46 KSGX 010351 AAA
TAFCRQ
TAF AMD
KCRQ 010351Z 0104/0124 VRB04KT P6SM VCSH SCT025 BKN035
     FM010700 VRB04KT P6SM VCSH BKN025 OVC035
     FM011000 VRB05KT 5SM -SHRA BR SCT015 OVC025
     FM012000 22008KT 6SM -SHRA BR FEW015 SCT025 BKN035=



000
FTUS46 KSGX 010310 AAA
TAFSAN
TAF AMD
KSAN 010310Z 0103/0206 VRB05KT P6SM VCSH FEW010 BKN025 BKN035
     FM011000 VRB05KT 5SM -SHRA BR SCT015 OVC025
     FM012000 22007KT 6SM -SHRA BR SCT025 BKN035=



000
FTUS46 KSGX 010310 AAA
TAFSAN
TAF AMD
KSAN 010310Z 0103/0206 VRB05KT P6SM VCSH FEW010 BKN025 BKN035
     FM011000 VRB05KT 5SM -SHRA BR SCT015 OVC025
     FM012000 22007KT 6SM -SHRA BR SCT025 BKN035=



    US Dept of Commerce
    National Oceanic and Atmospheric Administration
    National Weather Service
    1325 East West Highway
    Silver Spring, MD 20910
    Page Author: NWS Internet Services Team
Disclaimer
Information Quality
Credits
Glossary
Privacy Policy
Freedom of Information Act (FOIA)
About Us
Career Opportunities